sensor_id;sensor_type;location;lat;lon;timestamp;P1;durP1;ratioP1;P2;durP2;ratioP2
8281;SDS011;25606;42.686;23.136;2023-12-28T00:02:04;0.53;;;0.53;;
8281;SDS011;25606;42.686;23.136;2023-12-28T00:04:31;0.53;;;0.53;;
8281;SDS011;25606;42.686;23.136;2023-12-28T00:06:59;0.50;;;0.50;;
8281;SDS011;25606;42.686;23.136;2023-12-28T00:09:27;0.30;;;0.30;;
8281;SDS011;25606;42.686;23.136;2023-12-28T00:11:56;12.30;;;1.27;;
8281;SDS011;25606;42.686;23.136;2023-12-28T00:14:23;0.50;;;0.50;;
8281;SDS011;25606;42.686;23.136;2023-12-28T00:16:52;0.70;;;0.70;;
8281;SDS011;25606;42.686;23.136;2023-12-28T00:19:19;0.30;;;0.30;;
8281;SDS011;25606;42.686;23.136;2023-12-28T00:21:46;0.53;;;0.53;;
8281;SDS011;25606;42.686;23.136;2023-12-28T00:24:14;0.40;;;0.40;;
8281;SDS011;25606;42.686;23.136;2023-12-28T00:26:42;0.60;;;0.60;;
8281;SDS011;25606;42.686;23.136;2023-12-28T00:29:10;0.37;;;0.37;;
8281;SDS011;25606;42.686;23.136;2023-12-28T00:31:38;1.63;;;1.53;;
8281;SDS011;25606;42.686;23.136;2023-12-28T00:34:05;0.37;;;0.37;;
8281;SDS011;25606;42.686;23.136;2023-12-28T00:36:32;0.40;;;0.40;;
8281;SDS011;25606;42.686;23.136;2023-12-28T00:39:00;0.40;;;0.40;;
8281;SDS011;25606;42.686;23.136;2023-12-28T00:41:27;0.47;;;0.47;;
8281;SDS011;25606;42.686;23.136;2023-12-28T00:43:54;0.53;;;0.53;;
8281;SDS011;25606;42.686;23.136;2023-12-28T00:46:23;0.97;;;0.97;;
8281;SDS011;25606;42.686;23.136;2023-12-28T00:48:50;0.70;;;0.70;;
8281;SDS011;25606;42.686;23.136;2023-12-28T00:51:17;1.00;;;1.00;;
8281;SDS011;25606;42.686;23.136;2023-12-28T00:53:44;0.40;;;0.40;;
8281;SDS011;25606;42.686;23.136;2023-12-28T00:56:11;0.40;;;0.40;;
8281;SDS011;25606;42.686;23.136;2023-12-28T00:58:39;0.50;;;0.50;;
8281;SDS011;25606;42.686;23.136;2023-12-28T01:01:08;3.00;;;0.70;;
8281;SDS011;25606;42.686;23.136;2023-12-28T01:03:36;0.73;;;0.73;;
8281;SDS011;25606;42.686;23.136;2023-12-28T01:06:04;0.47;;;0.47;;
8281;SDS011;25606;42.686;23.136;2023-12-28T01:08:31;0.60;;;0.60;;
8281;SDS011;25606;42.686;23.136;2023-12-28T01:10:59;0.50;;;0.50;;
8281;SDS011;25606;42.686;23.136;2023-12-28T01:13:27;0.80;;;0.80;;
8281;SDS011;25606;42.686;23.136;2023-12-28T01:15:55;0.40;;;0.40;;
8281;SDS011;25606;42.686;23.136;2023-12-28T01:18:22;0.50;;;0.50;;
8281;SDS011;25606;42.686;23.136;2023-12-28T01:20:51;0.73;;;0.73;;
8281;SDS011;25606;42.686;23.136;2023-12-28T01:23:18;3.30;;;0.90;;
8281;SDS011;25606;42.686;23.136;2023-12-28T01:25:45;0.40;;;0.40;;
8281;SDS011;25606;42.686;23.136;2023-12-28T01:28:13;0.40;;;0.40;;
8281;SDS011;25606;42.686;23.136;2023-12-28T01:30:40;0.60;;;0.60;;
8281;SDS011;25606;42.686;23.136;2023-12-28T01:33:09;0.50;;;0.50;;
8281;SDS011;25606;42.686;23.136;2023-12-28T01:35:36;0.40;;;0.40;;
8281;SDS011;25606;42.686;23.136;2023-12-28T01:38:04;0.50;;;0.50;;
8281;SDS011;25606;42.686;23.136;2023-12-28T01:40:31;0.57;;;0.57;;
8281;SDS011;25606;42.686;23.136;2023-12-28T01:42:59;0.90;;;0.90;;
8281;SDS011;25606;42.686;23.136;2023-12-28T01:45:26;0.40;;;0.40;;
8281;SDS011;25606;42.686;23.136;2023-12-28T01:47:53;0.60;;;0.60;;
8281;SDS011;25606;42.686;23.136;2023-12-28T01:50:21;0.40;;;0.40;;
8281;SDS011;25606;42.686;23.136;2023-12-28T01:52:48;0.80;;;0.80;;
8281;SDS011;25606;42.686;23.136;2023-12-28T01:55:18;1.70;;;0.70;;
8281;SDS011;25606;42.686;23.136;2023-12-28T01:57:46;0.40;;;0.40;;
8281;SDS011;25606;42.686;23.136;2023-12-28T02:00:13;0.60;;;0.60;;
8281;SDS011;25606;42.686;23.136;2023-12-28T02:02:41;1.87;;;1.73;;
8281;SDS011;25606;42.686;23.136;2023-12-28T02:05:08;0.53;;;0.53;;
8281;SDS011;25606;42.686;23.136;2023-12-28T02:07:35;0.40;;;0.40;;
8281;SDS011;25606;42.686;23.136;2023-12-28T02:10:03;0.57;;;0.57;;
8281;SDS011;25606;42.686;23.136;2023-12-28T02:12:32;0.77;;;0.70;;
8281;SDS011;25606;42.686;23.136;2023-12-28T02:14:59;0.40;;;0.40;;
8281;SDS011;25606;42.686;23.136;2023-12-28T02:17:28;0.40;;;0.40;;
8281;SDS011;25606;42.686;23.136;2023-12-28T02:19:56;0.40;;;0.40;;
8281;SDS011;25606;42.686;23.136;2023-12-28T02:22:25;0.60;;;0.60;;
8281;SDS011;25606;42.686;23.136;2023-12-28T02:27:39;0.40;;;0.40;;
8281;SDS011;25606;42.686;23.136;2023-12-28T02:30:08;0.77;;;0.77;;
8281;SDS011;25606;42.686;23.136;2023-12-28T02:32:39;1.07;;;1.07;;
8281;SDS011;25606;42.686;23.136;2023-12-28T02:35:10;0.43;;;0.43;;
8281;SDS011;25606;42.686;23.136;2023-12-28T02:37:41;0.90;;;0.90;;
8281;SDS011;25606;42.686;23.136;2023-12-28T02:40:09;0.80;;;0.80;;
8281;SDS011;25606;42.686;23.136;2023-12-28T02:42:37;0.83;;;0.83;;
8281;SDS011;25606;42.686;23.136;2023-12-28T02:45:06;1.07;;;0.53;;
8281;SDS011;25606;42.686;23.136;2023-12-28T02:47:33;0.40;;;0.40;;
8281;SDS011;25606;42.686;23.136;2023-12-28T02:50:00;1.00;;;0.67;;
8281;SDS011;25606;42.686;23.136;2023-12-28T02:52:28;0.77;;;0.77;;
8281;SDS011;25606;42.686;23.136;2023-12-28T02:54:55;1.27;;;1.27;;
8281;SDS011;25606;42.686;23.136;2023-12-28T02:57:22;0.97;;;0.97;;
8281;SDS011;25606;42.686;23.136;2023-12-28T02:59:49;2.10;;;1.90;;
8281;SDS011;25606;42.686;23.136;2023-12-28T03:02:18;0.63;;;0.63;;
8281;SDS011;25606;42.686;23.136;2023-12-28T03:04:45;0.50;;;0.50;;
8281;SDS011;25606;42.686;23.136;2023-12-28T03:07:12;0.80;;;0.80;;
8281;SDS011;25606;42.686;23.136;2023-12-28T03:09:39;0.97;;;0.97;;
8281;SDS011;25606;42.686;23.136;2023-12-28T03:12:07;0.40;;;0.40;;
8281;SDS011;25606;42.686;23.136;2023-12-28T03:14:34;0.50;;;0.50;;
8281;SDS011;25606;42.686;23.136;2023-12-28T03:17:01;0.50;;;0.50;;
8281;SDS011;25606;42.686;23.136;2023-12-28T03:19:30;0.60;;;0.60;;
8281;SDS011;25606;42.686;23.136;2023-12-28T03:21:57;1.00;;;1.00;;
8281;SDS011;25606;42.686;23.136;2023-12-28T03:24:24;1.03;;;1.03;;
8281;SDS011;25606;42.686;23.136;2023-12-28T03:26:51;0.70;;;0.70;;
8281;SDS011;25606;42.686;23.136;2023-12-28T03:29:19;0.90;;;0.90;;
8281;SDS011;25606;42.686;23.136;2023-12-28T03:31:46;3.00;;;1.20;;
8281;SDS011;25606;42.686;23.136;2023-12-28T03:34:14;0.50;;;0.50;;
8281;SDS011;25606;42.686;23.136;2023-12-28T03:36:44;0.50;;;0.50;;
8281;SDS011;25606;42.686;23.136;2023-12-28T03:39:11;2.47;;;0.90;;
8281;SDS011;25606;42.686;23.136;2023-12-28T03:41:38;0.53;;;0.53;;
8281;SDS011;25606;42.686;23.136;2023-12-28T03:44:05;0.90;;;0.90;;
8281;SDS011;25606;42.686;23.136;2023-12-28T03:46:32;0.70;;;0.70;;
8281;SDS011;25606;42.686;23.136;2023-12-28T03:49:00;0.63;;;0.63;;
8281;SDS011;25606;42.686;23.136;2023-12-28T03:51:27;0.50;;;0.50;;
8281;SDS011;25606;42.686;23.136;2023-12-28T03:53:56;0.80;;;0.80;;
8281;SDS011;25606;42.686;23.136;2023-12-28T03:56:23;0.50;;;0.50;;
8281;SDS011;25606;42.686;23.136;2023-12-28T03:58:50;0.70;;;0.70;;
8281;SDS011;25606;42.686;23.136;2023-12-28T04:01:18;1.07;;;1.07;;
8281;SDS011;25606;42.686;23.136;2023-12-28T04:03:45;0.40;;;0.40;;
8281;SDS011;25606;42.686;23.136;2023-12-28T04:06:13;0.73;;;0.73;;
8281;SDS011;25606;42.686;23.136;2023-12-28T04:08:40;0.50;;;0.50;;
8281;SDS011;25606;42.686;23.136;2023-12-28T04:11:09;0.93;;;0.93;;
8281;SDS011;25606;42.686;23.136;2023-12-28T04:13:36;0.80;;;0.80;;
8281;SDS011;25606;42.686;23.136;2023-12-28T04:16:04;0.43;;;0.43;;
8281;SDS011;25606;42.686;23.136;2023-12-28T04:18:31;1.27;;;1.27;;
8281;SDS011;25606;42.686;23.136;2023-12-28T04:20:59;1.23;;;1.23;;
8281;SDS011;25606;42.686;23.136;2023-12-28T04:23:26;0.60;;;0.60;;
8281;SDS011;25606;42.686;23.136;2023-12-28T04:25:53;1.47;;;0.70;;
8281;SDS011;25606;42.686;23.136;2023-12-28T04:28:22;0.90;;;0.90;;
8281;SDS011;25606;42.686;23.136;2023-12-28T04:30:49;0.60;;;0.60;;
8281;SDS011;25606;42.686;23.136;2023-12-28T04:33:16;0.57;;;0.57;;
8281;SDS011;25606;42.686;23.136;2023-12-28T04:35:45;0.87;;;0.87;;
8281;SDS011;25606;42.686;23.136;2023-12-28T04:38:12;0.83;;;0.83;;
8281;SDS011;25606;42.686;23.136;2023-12-28T04:40:40;0.63;;;0.63;;
8281;SDS011;25606;42.686;23.136;2023-12-28T04:43:08;0.50;;;0.50;;
8281;SDS011;25606;42.686;23.136;2023-12-28T04:45:36;1.53;;;1.47;;
8281;SDS011;25606;42.686;23.136;2023-12-28T04:48:04;1.17;;;1.17;;
8281;SDS011;25606;42.686;23.136;2023-12-28T04:50:31;0.30;;;0.30;;
8281;SDS011;25606;42.686;23.136;2023-12-28T04:52:58;1.03;;;1.03;;
8281;SDS011;25606;42.686;23.136;2023-12-28T04:55:25;0.50;;;0.50;;
8281;SDS011;25606;42.686;23.136;2023-12-28T04:57:53;1.60;;;1.50;;
8281;SDS011;25606;42.686;23.136;2023-12-28T05:00:20;0.60;;;0.60;;
8281;SDS011;25606;42.686;23.136;2023-12-28T05:02:48;0.50;;;0.50;;
8281;SDS011;25606;42.686;23.136;2023-12-28T05:05:16;0.63;;;0.63;;
8281;SDS011;25606;42.686;23.136;2023-12-28T05:07:43;0.60;;;0.60;;
8281;SDS011;25606;42.686;23.136;2023-12-28T05:10:10;1.00;;;1.00;;
8281;SDS011;25606;42.686;23.136;2023-12-28T05:12:38;0.50;;;0.50;;
8281;SDS011;25606;42.686;23.136;2023-12-28T05:15:05;0.60;;;0.60;;
8281;SDS011;25606;42.686;23.136;2023-12-28T05:17:32;0.40;;;0.40;;
8281;SDS011;25606;42.686;23.136;2023-12-28T05:20:01;0.90;;;0.90;;
8281;SDS011;25606;42.686;23.136;2023-12-28T05:22:28;0.97;;;0.97;;
8281;SDS011;25606;42.686;23.136;2023-12-28T05:24:56;1.03;;;1.03;;
8281;SDS011;25606;42.686;23.136;2023-12-28T05:27:24;0.40;;;0.40;;
8281;SDS011;25606;42.686;23.136;2023-12-28T05:29:51;0.50;;;0.50;;
8281;SDS011;25606;42.686;23.136;2023-12-28T05:32:19;0.53;;;0.53;;
8281;SDS011;25606;42.686;23.136;2023-12-28T05:34:46;0.40;;;0.40;;
8281;SDS011;25606;42.686;23.136;2023-12-28T05:37:16;0.40;;;0.40;;
8281;SDS011;25606;42.686;23.136;2023-12-28T05:39:43;0.50;;;0.50;;
8281;SDS011;25606;42.686;23.136;2023-12-28T05:42:11;0.40;;;0.40;;
8281;SDS011;25606;42.686;23.136;2023-12-28T05:44:38;0.50;;;0.50;;
8281;SDS011;25606;42.686;23.136;2023-12-28T05:47:05;1.03;;;1.03;;
8281;SDS011;25606;42.686;23.136;2023-12-28T05:49:32;0.60;;;0.60;;
8281;SDS011;25606;42.686;23.136;2023-12-28T05:51:59;0.93;;;0.93;;
8281;SDS011;25606;42.686;23.136;2023-12-28T05:54:28;0.50;;;0.50;;
8281;SDS011;25606;42.686;23.136;2023-12-28T05:56:55;0.50;;;0.50;;
8281;SDS011;25606;42.686;23.136;2023-12-28T05:59:24;1.03;;;1.03;;
8281;SDS011;25606;42.686;23.136;2023-12-28T06:01:51;0.43;;;0.43;;
8281;SDS011;25606;42.686;23.136;2023-12-28T06:04:19;0.73;;;0.73;;
8281;SDS011;25606;42.686;23.136;2023-12-28T06:06:46;0.90;;;0.90;;
8281;SDS011;25606;42.686;23.136;2023-12-28T06:09:13;0.60;;;0.60;;
8281;SDS011;25606;42.686;23.136;2023-12-28T06:11:42;0.73;;;0.73;;
8281;SDS011;25606;42.686;23.136;2023-12-28T06:14:09;0.50;;;0.50;;
8281;SDS011;25606;42.686;23.136;2023-12-28T06:16:36;0.40;;;0.40;;
8281;SDS011;25606;42.686;23.136;2023-12-28T06:19:04;0.40;;;0.40;;
8281;SDS011;25606;42.686;23.136;2023-12-28T06:21:31;0.70;;;0.70;;
8281;SDS011;25606;42.686;23.136;2023-12-28T06:23:58;0.60;;;0.60;;
8281;SDS011;25606;42.686;23.136;2023-12-28T06:26:25;0.40;;;0.40;;
8281;SDS011;25606;42.686;23.136;2023-12-28T06:28:54;0.40;;;0.40;;
8281;SDS011;25606;42.686;23.136;2023-12-28T06:31:21;0.63;;;0.63;;
8281;SDS011;25606;42.686;23.136;2023-12-28T06:33:48;0.60;;;0.60;;
8281;SDS011;25606;42.686;23.136;2023-12-28T06:36:18;0.40;;;0.40;;
8281;SDS011;25606;42.686;23.136;2023-12-28T06:38:49;0.40;;;0.40;;
8281;SDS011;25606;42.686;23.136;2023-12-28T06:41:16;0.77;;;0.77;;
8281;SDS011;25606;42.686;23.136;2023-12-28T06:43:43;0.40;;;0.40;;
8281;SDS011;25606;42.686;23.136;2023-12-28T06:46:12;0.50;;;0.50;;
8281;SDS011;25606;42.686;23.136;2023-12-28T06:48:39;0.60;;;0.60;;
8281;SDS011;25606;42.686;23.136;2023-12-28T06:51:08;0.57;;;0.57;;
8281;SDS011;25606;42.686;23.136;2023-12-28T06:53:35;0.77;;;0.77;;
8281;SDS011;25606;42.686;23.136;2023-12-28T06:56:02;0.70;;;0.70;;
8281;SDS011;25606;42.686;23.136;2023-12-28T06:58:32;0.40;;;0.40;;
8281;SDS011;25606;42.686;23.136;2023-12-28T07:01:02;0.83;;;0.83;;
8281;SDS011;25606;42.686;23.136;2023-12-28T07:03:31;0.40;;;0.40;;
8281;SDS011;25606;42.686;23.136;2023-12-28T07:05:59;0.40;;;0.40;;
8281;SDS011;25606;42.686;23.136;2023-12-28T07:08:27;0.50;;;0.50;;
8281;SDS011;25606;42.686;23.136;2023-12-28T07:10:55;0.60;;;0.60;;
8281;SDS011;25606;42.686;23.136;2023-12-28T07:13:22;0.90;;;0.90;;
8281;SDS011;25606;42.686;23.136;2023-12-28T07:15:50;0.93;;;0.93;;
8281;SDS011;25606;42.686;23.136;2023-12-28T07:18:18;0.60;;;0.60;;
8281;SDS011;25606;42.686;23.136;2023-12-28T07:20:47;0.50;;;0.50;;
8281;SDS011;25606;42.686;23.136;2023-12-28T07:23:14;0.40;;;0.40;;
8281;SDS011;25606;42.686;23.136;2023-12-28T07:25:42;1.17;;;1.17;;
8281;SDS011;25606;42.686;23.136;2023-12-28T07:28:09;1.20;;;1.20;;
8281;SDS011;25606;42.686;23.136;2023-12-28T07:30:37;0.50;;;0.50;;
8281;SDS011;25606;42.686;23.136;2023-12-28T07:33:04;0.60;;;0.60;;
8281;SDS011;25606;42.686;23.136;2023-12-28T07:35:31;0.70;;;0.70;;
8281;SDS011;25606;42.686;23.136;2023-12-28T07:38:00;0.80;;;0.80;;
8281;SDS011;25606;42.686;23.136;2023-12-28T07:40:27;1.17;;;1.17;;
8281;SDS011;25606;42.686;23.136;2023-12-28T07:42:54;0.47;;;0.47;;
8281;SDS011;25606;42.686;23.136;2023-12-28T07:45:22;0.40;;;0.40;;
8281;SDS011;25606;42.686;23.136;2023-12-28T07:47:49;0.53;;;0.53;;
8281;SDS011;25606;42.686;23.136;2023-12-28T07:50:17;0.93;;;0.93;;
8281;SDS011;25606;42.686;23.136;2023-12-28T07:52:44;0.60;;;0.60;;
8281;SDS011;25606;42.686;23.136;2023-12-28T07:55:13;0.90;;;0.90;;
8281;SDS011;25606;42.686;23.136;2023-12-28T07:57:40;1.20;;;1.20;;
8281;SDS011;25606;42.686;23.136;2023-12-28T08:00:07;0.40;;;0.40;;
8281;SDS011;25606;42.686;23.136;2023-12-28T08:02:35;0.40;;;0.40;;
8281;SDS011;25606;42.686;23.136;2023-12-28T08:05:02;1.33;;;1.23;;
8281;SDS011;25606;42.686;23.136;2023-12-28T08:07:30;0.40;;;0.40;;
8281;SDS011;25606;42.686;23.136;2023-12-28T08:09:57;13.77;;;2.17;;
8281;SDS011;25606;42.686;23.136;2023-12-28T08:12:25;0.40;;;0.40;;
8281;SDS011;25606;42.686;23.136;2023-12-28T08:14:54;0.40;;;0.40;;
8281;SDS011;25606;42.686;23.136;2023-12-28T08:17:21;2.10;;;1.47;;
8281;SDS011;25606;42.686;23.136;2023-12-28T08:19:48;0.50;;;0.50;;
8281;SDS011;25606;42.686;23.136;2023-12-28T08:22:15;0.50;;;0.50;;
8281;SDS011;25606;42.686;23.136;2023-12-28T08:24:43;0.40;;;0.40;;
8281;SDS011;25606;42.686;23.136;2023-12-28T08:27:11;0.50;;;0.50;;
8281;SDS011;25606;42.686;23.136;2023-12-28T08:29:40;0.40;;;0.40;;
8281;SDS011;25606;42.686;23.136;2023-12-28T08:32:08;0.60;;;0.60;;
8281;SDS011;25606;42.686;23.136;2023-12-28T08:34:35;0.83;;;0.83;;
8281;SDS011;25606;42.686;23.136;2023-12-28T08:37:03;0.67;;;0.67;;
8281;SDS011;25606;42.686;23.136;2023-12-28T08:39:31;0.73;;;0.73;;
8281;SDS011;25606;42.686;23.136;2023-12-28T08:41:58;0.70;;;0.70;;
8281;SDS011;25606;42.686;23.136;2023-12-28T08:44:25;0.93;;;0.93;;
8281;SDS011;25606;42.686;23.136;2023-12-28T08:46:54;0.40;;;0.40;;
8281;SDS011;25606;42.686;23.136;2023-12-28T08:49:21;0.80;;;0.80;;
8281;SDS011;25606;42.686;23.136;2023-12-28T08:51:48;0.43;;;0.43;;
8281;SDS011;25606;42.686;23.136;2023-12-28T08:54:15;0.67;;;0.67;;
8281;SDS011;25606;42.686;23.136;2023-12-28T08:56:42;1.33;;;1.33;;
8281;SDS011;25606;42.686;23.136;2023-12-28T08:59:10;1.13;;;1.13;;
8281;SDS011;25606;42.686;23.136;2023-12-28T09:01:37;0.87;;;0.87;;
8281;SDS011;25606;42.686;23.136;2023-12-28T09:04:05;1.57;;;1.57;;
8281;SDS011;25606;42.686;23.136;2023-12-28T09:06:32;1.03;;;1.03;;
8281;SDS011;25606;42.686;23.136;2023-12-28T09:09:00;0.40;;;0.40;;
8281;SDS011;25606;42.686;23.136;2023-12-28T09:11:28;0.60;;;0.60;;
8281;SDS011;25606;42.686;23.136;2023-12-28T09:13:56;0.47;;;0.47;;
8281;SDS011;25606;42.686;23.136;2023-12-28T09:16:23;0.87;;;0.87;;
8281;SDS011;25606;42.686;23.136;2023-12-28T09:18:50;0.80;;;0.80;;
8281;SDS011;25606;42.686;23.136;2023-12-28T09:21:19;1.13;;;1.03;;
8281;SDS011;25606;42.686;23.136;2023-12-28T09:23:47;0.80;;;0.80;;
8281;SDS011;25606;42.686;23.136;2023-12-28T09:26:14;0.60;;;0.60;;
8281;SDS011;25606;42.686;23.136;2023-12-28T09:28:41;0.70;;;0.70;;
8281;SDS011;25606;42.686;23.136;2023-12-28T09:31:10;1.50;;;1.03;;
8281;SDS011;25606;42.686;23.136;2023-12-28T09:33:37;1.00;;;1.00;;
8281;SDS011;25606;42.686;23.136;2023-12-28T09:36:05;0.70;;;0.70;;
8281;SDS011;25606;42.686;23.136;2023-12-28T09:38:34;2.50;;;1.93;;
8281;SDS011;25606;42.686;23.136;2023-12-28T09:41:04;2.17;;;1.97;;
8281;SDS011;25606;42.686;23.136;2023-12-28T09:43:35;0.60;;;0.60;;
8281;SDS011;25606;42.686;23.136;2023-12-28T09:46:06;1.27;;;1.27;;
8281;SDS011;25606;42.686;23.136;2023-12-28T09:48:34;3.97;;;2.07;;
8281;SDS011;25606;42.686;23.136;2023-12-28T09:51:03;0.77;;;0.77;;
8281;SDS011;25606;42.686;23.136;2023-12-28T09:53:31;0.67;;;0.67;;
8281;SDS011;25606;42.686;23.136;2023-12-28T09:56:00;0.83;;;0.60;;
8281;SDS011;25606;42.686;23.136;2023-12-28T09:58:28;2.63;;;2.33;;
8281;SDS011;25606;42.686;23.136;2023-12-28T10:00:57;1.43;;;0.90;;
8281;SDS011;25606;42.686;23.136;2023-12-28T10:03:25;2.40;;;2.20;;
8281;SDS011;25606;42.686;23.136;2023-12-28T10:05:53;1.17;;;1.17;;
8281;SDS011;25606;42.686;23.136;2023-12-28T10:08:20;0.93;;;0.93;;
8281;SDS011;25606;42.686;23.136;2023-12-28T10:10:47;0.70;;;0.70;;
8281;SDS011;25606;42.686;23.136;2023-12-28T10:13:20;1.27;;;1.20;;
8281;SDS011;25606;42.686;23.136;2023-12-28T10:15:47;1.00;;;1.00;;
8281;SDS011;25606;42.686;23.136;2023-12-28T10:18:16;2.83;;;1.57;;
8281;SDS011;25606;42.686;23.136;2023-12-28T10:20:48;0.90;;;0.90;;
8281;SDS011;25606;42.686;23.136;2023-12-28T10:23:18;1.77;;;1.67;;
8281;SDS011;25606;42.686;23.136;2023-12-28T10:25:48;1.10;;;0.60;;
8281;SDS011;25606;42.686;23.136;2023-12-28T10:28:20;2.27;;;1.00;;
8281;SDS011;25606;42.686;23.136;2023-12-28T10:30:47;1.57;;;1.47;;
8281;SDS011;25606;42.686;23.136;2023-12-28T10:33:14;2.07;;;1.27;;
8281;SDS011;25606;42.686;23.136;2023-12-28T10:35:44;1.70;;;1.60;;
8281;SDS011;25606;42.686;23.136;2023-12-28T10:38:12;1.43;;;1.13;;
8281;SDS011;25606;42.686;23.136;2023-12-28T10:40:40;1.00;;;1.00;;
8281;SDS011;25606;42.686;23.136;2023-12-28T10:43:08;2.23;;;0.90;;
8281;SDS011;25606;42.686;23.136;2023-12-28T10:45:39;1.63;;;1.53;;
8281;SDS011;25606;42.686;23.136;2023-12-28T10:48:09;1.80;;;1.70;;
8281;SDS011;25606;42.686;23.136;2023-12-28T10:50:38;0.97;;;0.97;;
8281;SDS011;25606;42.686;23.136;2023-12-28T10:53:18;4.43;;;2.13;;
8281;SDS011;25606;42.686;23.136;2023-12-28T10:55:48;1.80;;;1.70;;
8281;SDS011;25606;42.686;23.136;2023-12-28T10:58:20;1.53;;;1.43;;
8281;SDS011;25606;42.686;23.136;2023-12-28T11:00:54;1.00;;;1.00;;
8281;SDS011;25606;42.686;23.136;2023-12-28T11:03:27;1.77;;;1.67;;
8281;SDS011;25606;42.686;23.136;2023-12-28T11:05:54;2.87;;;1.80;;
8281;SDS011;25606;42.686;23.136;2023-12-28T11:08:22;2.20;;;2.10;;
8281;SDS011;25606;42.686;23.136;2023-12-28T11:10:50;1.63;;;1.53;;
8281;SDS011;25606;42.686;23.136;2023-12-28T11:13:17;1.97;;;1.87;;
8281;SDS011;25606;42.686;23.136;2023-12-28T11:15:47;1.67;;;1.33;;
8281;SDS011;25606;42.686;23.136;2023-12-28T11:18:17;1.63;;;1.53;;
8281;SDS011;25606;42.686;23.136;2023-12-28T11:20:46;2.00;;;1.80;;
8281;SDS011;25606;42.686;23.136;2023-12-28T11:23:13;1.83;;;1.73;;
8281;SDS011;25606;42.686;23.136;2023-12-28T11:25:40;1.50;;;1.40;;
8281;SDS011;25606;42.686;23.136;2023-12-28T11:28:08;1.47;;;1.37;;
8281;SDS011;25606;42.686;23.136;2023-12-28T11:30:36;1.00;;;1.00;;
8281;SDS011;25606;42.686;23.136;2023-12-28T11:33:04;1.30;;;1.30;;
8281;SDS011;25606;42.686;23.136;2023-12-28T11:35:34;1.97;;;1.87;;
8281;SDS011;25606;42.686;23.136;2023-12-28T11:38:03;1.40;;;1.30;;
8281;SDS011;25606;42.686;23.136;2023-12-28T11:40:31;6.20;;;2.43;;
8281;SDS011;25606;42.686;23.136;2023-12-28T11:43:14;4.30;;;2.80;;
8281;SDS011;25606;42.686;23.136;2023-12-28T11:45:46;2.03;;;1.93;;
8281;SDS011;25606;42.686;23.136;2023-12-28T11:48:22;2.60;;;2.40;;
8281;SDS011;25606;42.686;23.136;2023-12-28T11:50:51;2.63;;;2.43;;
8281;SDS011;25606;42.686;23.136;2023-12-28T11:53:19;3.43;;;2.97;;
8281;SDS011;25606;42.686;23.136;2023-12-28T11:55:46;3.43;;;2.87;;
8281;SDS011;25606;42.686;23.136;2023-12-28T11:58:15;1.60;;;1.53;;
8281;SDS011;25606;42.686;23.136;2023-12-28T12:00:42;5.00;;;3.27;;
8281;SDS011;25606;42.686;23.136;2023-12-28T12:03:09;4.33;;;2.07;;
8281;SDS011;25606;42.686;23.136;2023-12-28T12:05:37;1.73;;;1.63;;
8281;SDS011;25606;42.686;23.136;2023-12-28T12:08:06;1.77;;;1.67;;
8281;SDS011;25606;42.686;23.136;2023-12-28T12:10:36;1.77;;;1.67;;
8281;SDS011;25606;42.686;23.136;2023-12-28T12:13:03;2.97;;;2.23;;
8281;SDS011;25606;42.686;23.136;2023-12-28T12:15:30;2.77;;;1.77;;
8281;SDS011;25606;42.686;23.136;2023-12-28T12:17:58;3.17;;;2.53;;
8281;SDS011;25606;42.686;23.136;2023-12-28T12:20:26;3.23;;;3.00;;
8281;SDS011;25606;42.686;23.136;2023-12-28T12:22:57;2.80;;;2.60;;
8281;SDS011;25606;42.686;23.136;2023-12-28T12:25:25;2.43;;;2.20;;
8281;SDS011;25606;42.686;23.136;2023-12-28T12:27:53;1.23;;;1.13;;
8281;SDS011;25606;42.686;23.136;2023-12-28T12:30:20;3.77;;;3.43;;
8281;SDS011;25606;42.686;23.136;2023-12-28T12:32:47;3.87;;;3.47;;
8281;SDS011;25606;42.686;23.136;2023-12-28T12:35:15;4.50;;;4.20;;
8281;SDS011;25606;42.686;23.136;2023-12-28T12:37:42;2.00;;;1.87;;
8281;SDS011;25606;42.686;23.136;2023-12-28T12:40:10;2.47;;;2.37;;
8281;SDS011;25606;42.686;23.136;2023-12-28T12:42:41;2.27;;;2.07;;
8281;SDS011;25606;42.686;23.136;2023-12-28T12:45:09;3.33;;;3.07;;
8281;SDS011;25606;42.686;23.136;2023-12-28T12:47:35;1.77;;;1.73;;
8281;SDS011;25606;42.686;23.136;2023-12-28T12:50:02;4.67;;;2.20;;
8281;SDS011;25606;42.686;23.136;2023-12-28T12:52:30;2.53;;;2.37;;
8281;SDS011;25606;42.686;23.136;2023-12-28T12:54:57;1.53;;;1.43;;
8281;SDS011;25606;42.686;23.136;2023-12-28T12:57:25;3.53;;;3.23;;
8281;SDS011;25606;42.686;23.136;2023-12-28T12:59:53;2.03;;;1.87;;
8281;SDS011;25606;42.686;23.136;2023-12-28T13:02:22;3.07;;;2.87;;
8281;SDS011;25606;42.686;23.136;2023-12-28T13:04:51;1.37;;;1.37;;
8281;SDS011;25606;42.686;23.136;2023-12-28T13:07:18;2.50;;;2.40;;
8281;SDS011;25606;42.686;23.136;2023-12-28T13:09:46;2.40;;;2.30;;
8281;SDS011;25606;42.686;23.136;2023-12-28T13:12:13;2.23;;;2.13;;
8281;SDS011;25606;42.686;23.136;2023-12-28T13:14:40;2.37;;;2.17;;
8281;SDS011;25606;42.686;23.136;2023-12-28T13:17:11;4.27;;;2.60;;
8281;SDS011;25606;42.686;23.136;2023-12-28T13:19:38;1.60;;;1.60;;
8281;SDS011;25606;42.686;23.136;2023-12-28T13:22:05;1.87;;;1.77;;
8281;SDS011;25606;42.686;23.136;2023-12-28T13:24:32;1.93;;;1.20;;
8281;SDS011;25606;42.686;23.136;2023-12-28T13:27:00;0.80;;;0.80;;
8281;SDS011;25606;42.686;23.136;2023-12-28T13:29:28;1.57;;;1.50;;
8281;SDS011;25606;42.686;23.136;2023-12-28T13:31:55;1.93;;;1.83;;
8281;SDS011;25606;42.686;23.136;2023-12-28T13:34:24;2.57;;;2.17;;
8281;SDS011;25606;42.686;23.136;2023-12-28T13:36:53;1.00;;;1.00;;
8281;SDS011;25606;42.686;23.136;2023-12-28T13:39:20;1.40;;;1.40;;
8281;SDS011;25606;42.686;23.136;2023-12-28T13:41:48;0.70;;;0.70;;
8281;SDS011;25606;42.686;23.136;2023-12-28T13:44:15;2.20;;;2.10;;
8281;SDS011;25606;42.686;23.136;2023-12-28T13:46:42;2.23;;;1.63;;
8281;SDS011;25606;42.686;23.136;2023-12-28T13:49:09;0.90;;;0.90;;
8281;SDS011;25606;42.686;23.136;2023-12-28T13:51:38;11.60;;;2.40;;
8281;SDS011;25606;42.686;23.136;2023-12-28T13:54:05;1.53;;;1.10;;
8281;SDS011;25606;42.686;23.136;2023-12-28T13:56:32;1.87;;;1.80;;
8281;SDS011;25606;42.686;23.136;2023-12-28T13:58:59;0.77;;;0.77;;
8281;SDS011;25606;42.686;23.136;2023-12-28T14:01:26;1.53;;;1.43;;
8281;SDS011;25606;42.686;23.136;2023-12-28T14:03:54;2.10;;;1.70;;
8281;SDS011;25606;42.686;23.136;2023-12-28T14:06:21;1.87;;;1.77;;
8281;SDS011;25606;42.686;23.136;2023-12-28T14:08:50;1.77;;;1.67;;
8281;SDS011;25606;42.686;23.136;2023-12-28T14:11:17;2.03;;;1.77;;
8281;SDS011;25606;42.686;23.136;2023-12-28T14:13:44;1.07;;;1.07;;
8281;SDS011;25606;42.686;23.136;2023-12-28T14:16:12;0.50;;;0.50;;
8281;SDS011;25606;42.686;23.136;2023-12-28T14:18:39;1.83;;;1.67;;
8281;SDS011;25606;42.686;23.136;2023-12-28T14:21:07;2.00;;;1.90;;
8281;SDS011;25606;42.686;23.136;2023-12-28T14:23:35;1.30;;;1.20;;
8281;SDS011;25606;42.686;23.136;2023-12-28T14:26:04;1.87;;;1.00;;
8281;SDS011;25606;42.686;23.136;2023-12-28T14:28:35;1.47;;;1.07;;
8281;SDS011;25606;42.686;23.136;2023-12-28T14:31:03;1.03;;;1.03;;
8281;SDS011;25606;42.686;23.136;2023-12-28T14:33:30;0.80;;;0.80;;
8281;SDS011;25606;42.686;23.136;2023-12-28T14:35:58;1.13;;;1.13;;
8281;SDS011;25606;42.686;23.136;2023-12-28T14:38:25;1.93;;;1.83;;
8281;SDS011;25606;42.686;23.136;2023-12-28T14:40:52;0.70;;;0.70;;
8281;SDS011;25606;42.686;23.136;2023-12-28T14:43:22;1.07;;;1.07;;
8281;SDS011;25606;42.686;23.136;2023-12-28T14:45:49;1.53;;;1.43;;
8281;SDS011;25606;42.686;23.136;2023-12-28T14:48:18;5.07;;;2.70;;
8281;SDS011;25606;42.686;23.136;2023-12-28T14:50:45;2.50;;;2.30;;
8281;SDS011;25606;42.686;23.136;2023-12-28T14:53:12;4.13;;;1.60;;
8281;SDS011;25606;42.686;23.136;2023-12-28T14:55:41;3.43;;;1.87;;